Tiempo atmosférico en la estación meteorológica de Lanaja, Huesca (380 m.)



Fecha
DESCASC
Temp. máxima en grados centígrados (hora)
DESCASC
Temp. mínima en grados centígrados (hora)
DESCASC
Temp. media en grados centígrados
DESCASC
Racha de viento máxima en m/sg (hora)
DESCASC
Velocidad máxima media en intervalos de 10 minutos(hora)
DESCASC
Precipitaciones diarias en mm
DESCASC
Precipitaciones de 00:00 a 06:00 en mm
DESCASC
Precipitaciones de 06:00 a 12:00 en mm
DESCASC
Precipitaciones de 12:00 a 18:00 en mm
DESCASC
Precipitaciones de 18:00 a 24:00 en mm
DESCASC
25-02-2021 14.7 (16:40) 5.3 (03:10) 10 7.5 (12:40) 3.89 (12:40) 0 0 0 0 0
24-02-2021 14.4 (16:30) 7.5 (23:59) 10.9 7.5 (12:30) 4.44 (12:10) 0 0 0 0 0
23-02-2021 14.4 (16:00) 7.2 (08:30) 10.8 6.11 (17:50) 3.33 (16:10) 0 0 0 0 0
22-02-2021 11.8 (02:50) 7.5 (23:20) 9.7 14.44 (06:10) 9.44 (06:20) 2.8 0.4 2.4 0 0
21-02-2021 13.8 (16:10) 4.9 (00:00) 9.4 13.61 (11:40) 8.89 (11:40) 0 0 0 0 0
20-02-2021 16.2 (15:20) 4.8 (00:00) 10.5 11.67 (22:00) 7.22 (17:30) 0 0 0 0 0
19-02-2021 16 (15:40) 4.6 (00:00) 10.3 6.11 (17:00) 3.89 (15:50) 0 0 0 0 0
18-02-2021 16.2 (16:00) 5.9 (00:00) 11.1 6.11 (12:50) 3.89 (12:50) 0 0 0 0 0
17-02-2021 15.1 (16:00) 5.8 (00:00) 10.5 4.17 (14:10) 2.78 (00:10) 0 0 0 0 0
16-02-2021 14.4 (15:20) 7.2 (00:00) 10.8 5.28 (12:20) 4.17 (22:20) 0 0 0 0 0
15-02-2021 10.3 (16:50) 5.3 (00:00) 7.8 6.39 (01:00) 3.89 (17:20) 0 0 0 0 0
14-02-2021 10.1 (15:20) 4.2 (00:00) 7.2 9.72 (18:10) 5.83 (16:50) 0 0 0 0 0
13-02-2021 14.4 (14:40) 6.2 (00:00) 10.3 17.5 (00:30) 12.5 (00:40) 0 0 0 0 0
12-02-2021 13 (00:00) 7.3 (00:00) 10.2 20 (19:00) 14.72 (20:10) 1.4 0 0.4 1 0
11-02-2021 16.6 (15:50) 4.1 (00:00) 10.4 8.33 (15:30) 5.56 (14:00) 0 0 0 0 0
10-02-2021 12.2 (16:10) 4.6 (00:00) 8.4 17.5 (12:00) 12.22 (14:10) 3.6 1.2 2.4 0 0
09-02-2021 8.5 (00:00) 5.4 (00:00) 7 8.89 (00:10) 5.83 (00:30) 3 0 0 3 0
08-02-2021 12.1 (17:20) 5 (00:00) 8.6 14.44 (18:40) 7.22 (18:40) 2.8 0 0.6 0.2 2
07-02-2021 10 (15:00) 3.5 (00:00) 6.8 16.67 (01:10) 11.94 (12:50) 0 0 0 0 0
06-02-2021 16.1 (13:30) 7 (00:00) 11.6 14.44 (16:30) 9.72 (16:30) 0.2 0 0 0.2 0
05-02-2021 14.8 (15:00) 7.3 (00:00) 11.1 10 (14:50) 6.39 (16:20) 0 0 0 0 0
04-02-2021 16 (16:30) 8.7 (00:00) 12.3 8.33 (18:00) 5 (17:50) 0 0 0 0 0
03-02-2021 18.5 (14:20) 6.7 (00:00) 12.6 8.61 (15:00) 5.28 (15:40) 0 0 0 0 0
02-02-2021 18.8 (15:00) 10 (00:00) 14.4 9.44 (03:40) 6.39 (03:40) 0 0 0 0 0
01-02-2021 16.1 (14:20) 8.9 (00:00) 12.5 23.06 (13:00) 16.67 (13:40) 0 0 0 0 0
31-01-2021 14.4 (23:30) 6.9 (00:00) 10.6 19.44 (11:40) 14.17 (11:40) 0 0 0 0 0
30-01-2021 15.9 (14:10) 6.7 (00:00) 11.3 20.28 (15:50) 12.5 (15:40) 2.8 0 0.6 2.2 0

Gráficas

Temp. máximas Temp. mínimas Temp. medias Precipitaciones Rachas de viento máximas Velocidades máximas media en intervalos de 10 minutos

Datos horarios

Fecha y hora oficial Temperatura (ºC) Velocidad del viento (km/h) Dirección del viento Racha (km/h) Dirección de racha Precipitación (mm) Presión (hPa) Tendencia (hPa) Humedad (%)
2021-02-28 23:00:00 7.9 13 Sudeste 27 Sudeste 0 -- -- 82
2021-02-28 22:00:00 8.4 13 Sudeste 26 Sudeste 0 -- -- 80
2021-02-28 21:00:00 8.5 15 Sudeste 28 Sur 0 -- -- 79
2021-02-28 20:00:00 9.2 19 Sur 30 Sudeste 0 -- -- 75
2021-02-28 19:00:00 10.2 17 Sudeste 42 Sur 0 -- -- 70
2021-02-28 18:00:00 11.8 30 Sudeste 41 Sudeste 0 -- -- 66
2021-02-28 17:00:00 12.3 22 Sudeste 34 Sudeste 0 -- -- 66
2021-02-28 16:00:00 11.3 17 Sudeste 33 Este 0 -- -- 77
2021-02-28 15:00:00 10.6 18 Sudeste 31 Este 0.2 -- -- 83
2021-02-28 14:00:00 11.5 17 Sudeste 32 Sudeste 0 -- -- 74
2021-02-28 13:00:00 10.9 18 Sudeste 31 Sudeste 0 -- -- 77
2021-02-28 12:00:00 10.3 12 Sudeste 23 Sudeste 0 -- -- 79
2021-02-28 11:00:00 9.4 14 Sudeste 24 Sudeste 0 -- -- 77
2021-02-28 10:00:00 7.5 7 Sudeste 10 Sudeste 0 -- -- 89
2021-02-28 09:00:00 6.7 4 Sur 13 Este 0 -- -- 92
2021-02-28 08:00:00 6.8 7 Sudeste 10 Este 0 -- -- 92
2021-02-28 07:00:00 7 5 Sudoeste 12 Sudeste 0 -- -- 91
2021-02-28 06:00:00 7.3 8 Sur 17 Sudeste 0 -- -- 91
2021-02-28 05:00:00 7.4 6 Sudoeste 9 Sudoeste 0 -- -- 91
2021-02-28 04:00:00 7.6 4 Sur 5 Sur 0 -- -- 90
2021-02-28 03:00:00 7.5 0 Calma 5 Oeste 0 -- -- 91
2021-02-28 02:00:00 7.2 0 Calma 6 Sudoeste 0 -- -- 92
2021-02-28 01:00:00 7 3 Sudoeste 5 Sudoeste 0 -- -- 93
2021-02-28 00:00:00 6.3 0 Calma 3 Sudeste 0 -- -- 92
2021-02-27 23:00:00 7 3 Sudeste 12 Sudeste 0 -- -- 90
2021-02-27 22:00:00 7.7 8 Sudeste 17 Sudeste 0 -- -- 88
2021-02-27 21:00:00 8.4 9 Sudeste 19 Sudeste 0 -- -- 87
2021-02-27 20:00:00 9.8 9 Sudeste 17 Sudeste 0 -- -- 82
2021-02-27 19:00:00 10.9 8 Este 10 Este 0 -- -- 78
2021-02-27 18:00:00 12.5 6 Nordeste 10 Nordeste 0 -- -- 73
2021-02-27 17:00:00 12.9 5 Norte 19 Nordeste 0 -- -- 72
2021-02-27 16:00:00 13.1 15 Nordeste 21 Nordeste 0 -- -- 70
2021-02-27 15:00:00 13.4 6 Norte 14 Noroeste 0 -- -- 70
2021-02-27 14:00:00 13 6 Sur 14 Sudoeste 0 -- -- 70
2021-02-27 13:00:00 10.5 8 Nordeste 17 Nordeste 0 -- -- 78
2021-02-27 12:00:00 10.4 8 Norte 16 Norte 0 -- -- 80
2021-02-27 11:00:00 8.9 9 Nordeste 14 Norte 0 -- -- 92
2021-02-27 10:00:00 7.8 3 Noroeste 10 Oeste 0 -- -- 96
2021-02-27 09:00:00 6.4 4 Noroeste 8 Sudoeste 0 -- -- 96
2021-02-27 08:00:00 6.2 6 Sudoeste 13 Sudoeste 0 -- -- 96
2021-02-27 07:00:00 6.3 5 Oeste 7 Oeste 0 -- -- 96
2021-02-27 06:00:00 6.5 2 Sudoeste 11 Noroeste 0 -- -- 96
2021-02-27 05:00:00 6.4 10 Oeste 13 Noroeste 0 -- -- 95
2021-02-27 04:00:00 6.8 4 Noroeste 6 Nordeste 0 -- -- 95
2021-02-27 03:00:00 6.9 4 Oeste 6 Sur 0 -- -- 95
2021-02-27 02:00:00 6.6 2 Sudoeste 6 Sudoeste 0 -- -- 94
2021-02-27 01:00:00 6.7 6 Sudeste 10 Sudeste 0 -- -- 94
2021-02-27 00:00:00 7.9 2 Sur 9 Sudoeste 0 -- -- 93
2021-02-26 23:00:00 8.5 7 Sur 11 Sudeste 0 -- -- 91
2021-02-26 22:00:00 9.9 0 Calma 10 Norte 0 -- -- 84
2021-02-26 21:00:00 10.5 5 Noroeste 13 Oeste 0 -- -- 81
2021-02-26 20:00:00 11.7 0 Calma 7 Norte 0 -- -- 81
2021-02-26 19:00:00 13.7 4 Sur 8 Sudeste 0 -- -- 75
2021-02-26 18:00:00 15 5 Sudeste 8 Sudeste 0 -- -- 70
2021-02-26 17:00:00 15.7 2 Este 9 Norte 0 -- -- 68
2021-02-26 16:00:00 15.5 4 Norte 8 Noroeste 0 -- -- 68
2021-02-26 15:00:00 14.9 5 Norte 12 Norte 0 -- -- 70
2021-02-26 14:00:00 14.4 4 Este 10 Sudeste 0 -- -- 71
2021-02-26 13:00:00 10.8 3 Noroeste 8 Noroeste 0 -- -- 90
2021-02-26 12:00:00 8.6 0 Calma 6 Sur 0 -- -- 95
2021-02-26 11:00:00 7.2 4 Norte 8 Nordeste 0 -- -- 95
2021-02-26 10:00:00 6.5 5 Norte 7 Norte 0 -- -- 95
2021-02-26 09:00:00 6 0 Calma 3 Este 0 -- -- 94
2021-02-26 08:00:00 5.6 0 Calma 3 Sur 0 -- -- 93
2021-02-26 07:00:00 6 0 Calma 7 Noroeste 0 -- -- 94
2021-02-26 06:00:00 6.2 0 Calma 3 Noroeste 0 -- -- 93
2021-02-26 05:00:00 6.5 0 Calma 7 Noroeste 0 -- -- 93
2021-02-26 04:00:00 6.2 4 Noroeste 7 Noroeste 0 -- -- 91
2021-02-26 03:00:00 6.7 8 Noroeste 10 Noroeste 0 -- -- 89
2021-02-26 02:00:00 8.5 0 Calma 4 Sudoeste 0 -- -- 83
2021-02-26 01:00:00 8.2 0 Calma 4 Oeste 0 -- -- 85
2021-02-26 00:00:00 8.3 2 Sudeste 4 Sur 0 -- -- 85
2021-02-25 23:00:00 9.6 3 Norte 6 Noroeste 0 -- -- 79
2021-02-25 22:00:00 10.3 4 Oeste 8 Sudoeste 0 -- -- 78
2021-02-25 21:00:00 10.1 7 Oeste 8 Oeste 0 -- -- 79
2021-02-25 20:00:00 11 3 Norte 6 Norte 0 -- -- 76
2021-02-25 19:00:00 12.5 6 Norte 6 Norte 0 -- -- 70
2021-02-25 18:00:00 14.3 3 Este 13 Sur 0 -- -- 64
2021-02-25 17:00:00 14.7 7 Sudeste 15 Este 0 -- -- 61
2021-02-25 16:00:00 14.5 5 Sudeste 20 Sur 0 -- -- 62
2021-02-25 15:00:00 13.7 8 Este 21 Este 0 -- -- 67
2021-02-25 14:00:00 13.2 12 Sudeste 23 Sudeste 0 -- -- 67
2021-02-25 13:00:00 11.3 12 Sudeste 27 Sudeste 0 -- -- 73
2021-02-25 12:00:00 10.9 8 Sudeste 18 Este 0 -- -- 77
2021-02-25 11:00:00 9.4 9 Este 14 Este 0 -- -- 81
2021-02-25 10:00:00 8.3 7 Sudeste 11 Sudeste 0 -- -- 86
2021-02-25 09:00:00 7 4 Sur 6 Sudoeste 0 -- -- 91
2021-02-25 08:00:00 6.7 3 Sur 10 Este 0 -- -- 91
2021-02-25 07:00:00 6.6 6 Sudeste 9 Sudeste 0 -- -- 92
2021-02-25 06:00:00 6.6 5 Sur 11 Sudeste 0 -- -- 93
2021-02-25 05:00:00 6.3 7 Sudeste 14 Sudeste 0 -- -- 94
2021-02-25 04:00:00 5.7 6 Sudeste 13 Sudeste 0 -- -- 94
2021-02-25 03:00:00 5.4 6 Sudoeste 8 Sudoeste 0 -- -- 93
2021-02-25 02:00:00 6 3 Sur 11 Sudeste 0 -- -- 92
2021-02-25 01:00:00 6.9 5 Sudeste 10 Noroeste 0 -- -- 92
2021-02-25 00:00:00 7.5 8 Sudeste 17 Sudeste 0 -- -- 88
2021-02-24 23:00:00 8.6 8 Sudeste 24 Sudeste 0 -- -- 84
2021-02-24 22:00:00 9.7 13 Sudeste 20 Sudeste 0 -- -- 80
2021-02-24 21:00:00 10.8 11 Sudeste 19 Sudeste 0 -- -- 76
2021-02-24 20:00:00 11.4 5 Sur 16 Sudeste 0 -- -- 81
2021-02-24 19:00:00 12.3 9 Sudeste 17 Sudeste 0 -- -- 80
2021-02-24 18:00:00 13.7 8 Sudeste 19 Este 0 -- -- 75
2021-02-24 17:00:00 14.3 12 Sudeste 22 Sudeste 0 -- -- 71
2021-02-24 16:00:00 13.9 14 Sudeste 25 Sudeste 0 -- -- 71
2021-02-24 15:00:00 14 14 Sudeste 26 Este 0 -- -- 71
2021-02-24 14:00:00 13.6 11 Sudeste 23 Sudeste 0 -- -- 73
2021-02-24 13:00:00 12.1 10 Sudeste 27 Este 0 -- -- 78
2021-02-24 12:00:00 11.3 14 Sudeste 22 Sudeste 0 -- -- 84
2021-02-24 11:00:00 10.5 9 Sudeste 17 Sudeste 0 -- -- 92
2021-02-24 10:00:00 9.5 6 Sudeste 13 Sudeste 0 -- -- 94
2021-02-24 09:00:00 8.9 5 Sur 9 Sudeste 0 -- -- 94
2021-02-24 08:00:00 8.7 5 Sudeste 12 Sudeste 0 -- -- 94
2021-02-24 07:00:00 8.8 4 Sudeste 10 Este 0 -- -- 94
2021-02-24 06:00:00 8.7 6 Sur 15 Este 0 -- -- 93
2021-02-24 05:00:00 8.6 5 Sudeste 8 Sudeste 0 -- -- 94
2021-02-24 04:00:00 7.6 2 Sudoeste 9 Sudeste 0 -- -- 93
2021-02-24 03:00:00 7.9 6 Sudeste 16 Sudeste 0 -- -- 92
2021-02-24 02:00:00 8.7 7 Sudeste 16 Sudeste 0 -- -- 89
2021-02-24 01:00:00 9.7 13 Sudeste 23 Sudeste 0 -- -- 86
2021-02-24 00:00:00 10.2 8 Sudeste 13 Norte 0 -- -- 85
2021-02-23 23:00:00 10.3 9 Sudeste 15 Sudeste 0 -- -- 83
2021-02-23 22:00:00 9.8 9 Sur 11 Sur 0 -- -- 83
2021-02-23 21:00:00 10 7 Sudoeste 10 Sudoeste 0 -- -- 81
2021-02-23 20:00:00 10.6 5 Sudoeste 12 Sudeste 0 -- -- 80
2021-02-23 19:00:00 12.3 8 Este 13 Sudeste 0 -- -- 74
2021-02-23 18:00:00 13.8 10 Sudeste 22 Sudeste 0 -- -- 68
2021-02-23 17:00:00 14.1 10 Este 21 Sudeste 0 -- -- 67
2021-02-23 16:00:00 14.4 9 Sudeste 21 Este 0 -- -- 67
2021-02-23 15:00:00 14.3 9 Sudeste 20 Sudeste 0 -- -- 67
2021-02-23 14:00:00 13.4 10 Sudeste 19 Este 0 -- -- 70
2021-02-23 13:00:00 12.8 9 Este 20 Sur 0 -- -- 72
2021-02-23 12:00:00 11 5 Sudeste 12 Este 0 -- -- 82
2021-02-23 11:00:00 8.9 3 Sur 8 Sudeste 0 -- -- 93
2021-02-23 10:00:00 8 3 Sudeste 9 Este 0 -- -- 95
2021-02-23 09:00:00 7.7 3 Noroeste 6 Noroeste 0 -- -- 95
2021-02-23 08:00:00 7.4 4 Nordeste 8 Norte 0 -- -- 94
2021-02-23 07:00:00 7.4 4 Sudoeste 8 Sudeste 0 -- -- 94
2021-02-23 06:00:00 7.7 6 Sudeste 9 Sudeste 0 -- -- 92
2021-02-23 05:00:00 7.9 3 Sudeste 4 Sudeste 0 -- -- 90
2021-02-23 04:00:00 7.9 0 Calma 6 Este 0 -- -- 90
2021-02-23 03:00:00 7.9 0 Calma 5 Oeste 0 -- -- 89
2021-02-23 02:00:00 7.7 3 Oeste 5 Sudoeste 0 -- -- 90
2021-02-23 01:00:00 7.7 0 Calma 5 Oeste 0 -- -- 90
2021-02-23 00:00:00 7.8 4 Noroeste 8 Noroeste 0 -- -- 90
2021-02-22 23:00:00 7.7 4 Noroeste 9 Norte 0 -- -- 91
2021-02-22 22:00:00 7.8 8 Noroeste 13 Noroeste 0 -- -- 90
2021-02-22 21:00:00 8 6 Norte 10 Norte 0 -- -- 90
2021-02-22 20:00:00 8.2 6 Norte 12 Noroeste 0 -- -- 90
2021-02-22 19:00:00 8.3 8 Noroeste 13 Noroeste 0 -- -- 88
2021-02-22 18:00:00 8.7 7 Noroeste 13 Noroeste 0 -- -- 86
2021-02-22 17:00:00 8.9 10 Noroeste 13 Noroeste 0 -- -- 84
2021-02-22 16:00:00 8.8 7 Noroeste 17 Noroeste 0 -- -- 85
2021-02-22 15:00:00 8.7 11 Norte 16 Norte 0 -- -- 87
2021-02-22 14:00:00 9.3 7 Norte 17 Noroeste 0 -- -- 85
2021-02-22 13:00:00 8.6 12 Oeste 17 Oeste 0 -- -- 89
2021-02-22 12:00:00 8.2 8 Noroeste 15 Noroeste 0.4 -- -- 92
2021-02-22 11:00:00 8 7 Noroeste 15 Oeste 0.4 -- -- 91
2021-02-22 10:00:00 7.7 9 Oeste 15 Oeste 0.4 -- -- 90
2021-02-22 09:00:00 8.4 9 Sudoeste 20 Sur 1.2 -- -- 87
2021-02-22 08:00:00 9.8 9 Sur 30 Sur 0 -- -- 85
2021-02-22 07:00:00 9.8 27 Sur 52 Sudeste 0 -- -- 86
2021-02-22 06:00:00 11 31 Sudeste 48 Sudeste 0.2 -- -- 88
2021-02-22 05:00:00 10.9 22 Sudeste 42 Este 0.2 -- -- 88
2021-02-22 04:00:00 11.7 22 Sudeste 39 Sudeste 0 -- -- 78
2021-02-22 03:00:00 11.8 27 Sudeste 45 Sudeste 0 -- -- 76
2021-02-22 02:00:00 11.3 19 Sudeste 34 Sudeste 0 -- -- 77
2021-02-22 01:00:00 11.3 15 Sudeste 40 Este 0 -- -- 76
2021-02-22 00:00:00 11.4 22 Sudeste 36 Sudeste 0 -- -- 73
2021-02-21 23:00:00 11.5 17 Sudeste 34 Sudeste 0 -- -- 72
2021-02-21 22:00:00 11.4 15 Sudeste 29 Sudeste 0 -- -- 72
2021-02-21 21:00:00 11.6 9 Este 38 Sudeste 0 -- -- 71
2021-02-21 20:00:00 12 20 Sudeste 41 Sudeste 0 -- -- 70
2021-02-21 19:00:00 12.4 24 Sudeste 39 Sudeste 0 -- -- 69
2021-02-21 18:00:00 13.1 20 Sudeste 43 Sudeste 0 -- -- 67
2021-02-21 17:00:00 13.5 27 Sudeste 49 Este 0 -- -- 65
2021-02-21 16:00:00 13.7 28 Sudeste 46 Sudeste 0 -- -- 65
2021-02-21 15:00:00 13 26 Sudeste 46 Sudeste 0 -- -- 65
2021-02-21 14:00:00 13 20 Sudeste 36 Sudeste 0 -- -- 65
2021-02-21 13:00:00 12.3 23 Sudeste 45 Sudeste 0 -- -- 66
2021-02-21 12:00:00 11.3 30 Sudeste 49 Sudeste 0 -- -- 69
2021-02-21 11:00:00 10.2 21 Sudeste 35 Sur 0 -- -- 73
2021-02-21 10:00:00 8.4 17 Sudeste 28 Sudeste 0 -- -- 79
2021-02-21 09:00:00 6.6 6 Sudeste 12 Sur 0 -- -- 86
2021-02-21 08:00:00 5.8 10 Sudeste 20 Sudeste 0 -- -- 88
2021-02-21 07:00:00 5.4 6 Este 16 Sudeste 0 -- -- 91
2021-02-21 06:00:00 5.1 6 Nordeste 9 Norte 0 -- -- 87
2021-02-21 05:00:00 6.3 5 Sudeste 24 Este 0 -- -- 80
2021-02-21 04:00:00 6.8 12 Sudeste 25 Este 0 -- -- 78
2021-02-21 03:00:00 6.8 11 Sudeste 22 Sudeste 0 -- -- 79
2021-02-21 02:00:00 7.4 8 Sudeste 23 Sudeste 0 -- -- 77
2021-02-21 01:00:00 7.5 15 Sudeste 27 Sudeste 0 -- -- 76
2021-02-21 00:00:00 8 14 Sudeste 32 Sudeste 0 -- -- 74
2021-02-20 23:00:00 8.7 14 Sudeste 38 Sudeste 0 -- -- 72
2021-02-20 22:00:00 8.9 23 Sudeste 42 Sudeste 0 -- -- 75
2021-02-20 21:00:00 9.1 24 Sudeste 40 Sudeste 0 -- -- 77
2021-02-20 20:00:00 9.6 24 Sudeste 38 Sudeste 0 -- -- 76
2021-02-20 19:00:00 10.8 23 Sudeste 39 Sudeste 0 -- -- 71
2021-02-20 18:00:00 12.9 26 Sudeste 40 Sudeste 0 -- -- 63
2021-02-20 17:00:00 14.8 18 Este 39 Este 0 -- -- 60
2021-02-20 16:00:00 16.1 18 Sudeste 40 Sudeste 0 -- -- 54
2021-02-20 15:00:00 15.7 18 Sudeste 35 Sudeste 0 -- -- 61
2021-02-20 14:00:00 14.3 18 Sudeste 31 Sudeste 0 -- -- 63
2021-02-20 13:00:00 12.3 16 Sudeste 27 Sudeste 0 -- -- 72
2021-02-20 12:00:00 9.7 9 Sur 19 Sur 0 -- -- 94
2021-02-20 11:00:00 6.7 12 Sur 23 Sudeste 0 -- -- 95
2021-02-20 10:00:00 5.9 13 Sudeste 19 Sudeste 0 -- -- 95
2021-02-20 09:00:00 5.5 10 Sudeste 17 Sudeste 0 -- -- 95
2021-02-20 08:00:00 5.4 9 Sur 15 Sudeste 0 -- -- 94
2021-02-20 07:00:00 5 5 Sur 16 Sudeste 0 -- -- 92
2021-02-20 06:00:00 5.1 5 Sur 9 Sur 0 -- -- 88
2021-02-20 05:00:00 5.4 5 Sudoeste 9 Sur 0 -- -- 88
2021-02-20 04:00:00 5.7 5 Sudoeste 9 Sur 0 -- -- 83
2021-02-20 03:00:00 6.9 4 Sudeste 8 Sudeste 0 -- -- 80
2021-02-20 02:00:00 6.9 4 Sudoeste 6 Sudoeste 0 -- -- 78
2021-02-20 01:00:00 7.8 5 Sur 11 Este 0 -- -- 74
2021-02-20 00:00:00 8.9 6 Nordeste 8 Este 0 -- -- 70
2021-02-19 23:00:00 9.6 0 Calma 6 Sur 0 -- -- 67
2021-02-19 22:00:00 10.4 5 Sudeste 15 Sudeste 0 -- -- 64
2021-02-19 21:00:00 10.7 4 Sudoeste 11 Sudeste 0 -- -- 65
2021-02-19 20:00:00 12.5 4 Sur 12 Sudeste 0 -- -- 61
2021-02-19 19:00:00 13.7 4 Sudeste 14 Sudeste 0 -- -- 57
2021-02-19 18:00:00 15.3 9 Sudeste 21 Sudeste 0 -- -- 48
2021-02-19 17:00:00 15.8 13 Sudeste 22 Sudeste 0 -- -- 47
2021-02-19 16:00:00 15.9 11 Sudeste 21 Este 0 -- -- 54
2021-02-19 15:00:00 15.4 9 Sudeste 18 Este 0 -- -- 59
2021-02-19 14:00:00 13.9 8 Sudeste 17 Sudeste 0 -- -- 66
2021-02-19 13:00:00 11.7 6 Sudeste 12 Sudeste 0 -- -- 81
2021-02-19 12:00:00 8.1 4 Sur 9 Sur 0 -- -- 96
2021-02-19 11:00:00 6.6 6 Sudeste 9 Sudeste 0 -- -- 96
2021-02-19 10:00:00 5.5 0 Calma 5 Sudeste 0 -- -- 96
2021-02-19 09:00:00 4.7 4 Sur 9 Sur 0 -- -- 96
2021-02-19 08:00:00 4.8 5 Sudoeste 10 Sudoeste 0 -- -- 95
2021-02-19 07:00:00 5 4 Sudoeste 8 Sur 0 -- -- 95
2021-02-19 06:00:00 5.4 6 Sur 10 Sudoeste 0 -- -- 95
2021-02-19 05:00:00 6 8 Sudoeste 9 Sur 0 -- -- 94
2021-02-19 04:00:00 6.1 3 Sur 7 Sur 0 -- -- 93
2021-02-19 03:00:00 6.8 6 Sur 10 Sudeste 0 -- -- 91
2021-02-19 02:00:00 7.7 10 Sudeste 13 Sudeste 0 -- -- 90
2021-02-19 01:00:00 8.3 3 Sur 9 Sudeste 0 -- -- 89
2021-02-19 00:00:00 9.1 6 Sudeste 12 Nordeste 0 -- -- 88
2021-02-18 23:00:00 10.5 5 Sudeste 9 Sur 0 -- -- 71
2021-02-18 22:00:00 11.5 0 Calma 13 Sudoeste 0 -- -- 69
2021-02-18 21:00:00 10.7 8 Sudoeste 13 Sudoeste 0 -- -- 79
2021-02-18 20:00:00 11.1 5 Sur 8 Sur 0 -- -- 81
2021-02-18 19:00:00 12.8 7 Sur 12 Sur 0 -- -- 76
2021-02-18 18:00:00 14.5 9 Sur 15 Sudeste 0 -- -- 69
2021-02-18 17:00:00 15.2 7 Este 17 Este 0 -- -- 65
2021-02-18 16:00:00 16.2 8 Sur 14 Sudeste 0 -- -- 62
2021-02-18 15:00:00 15.6 6 Sudeste 13 Sudeste 0 -- -- 66
2021-02-18 14:00:00 14.1 6 Nordeste 17 Sudeste 0 -- -- 68
2021-02-18 13:00:00 13.3 14 Sudeste 22 Sur 0 -- -- 69
2021-02-18 12:00:00 12.9 8 Sudeste 21 Sudeste 0 -- -- 70
2021-02-18 11:00:00 11.5 12 Sudeste 20 Sudeste 0 -- -- 76
2021-02-18 10:00:00 10.8 9 Sudeste 14 Sudeste 0 -- -- 79
2021-02-18 09:00:00 7.8 8 Sudoeste 10 Sudoeste 0 -- -- 90
2021-02-18 08:00:00 5.9 6 Sudoeste 10 Sudoeste 0 -- -- 91
2021-02-18 07:00:00 6.9 6 Sudoeste 9 Sudoeste 0 -- -- 92
2021-02-18 06:00:00 6.6 5 Sudoeste 6 Sudoeste 0 -- -- 93
2021-02-18 05:00:00 6.9 4 Sudoeste 8 Sudoeste 0 -- -- 92
2021-02-18 04:00:00 7.4 4 Sudoeste 6 Sudoeste 0 -- -- 91
2021-02-18 03:00:00 7.8 3 Sudoeste 6 Noroeste 0 -- -- 91
2021-02-18 02:00:00 8 4 Oeste 6 Noroeste 0 -- -- 89
2021-02-18 01:00:00 8.5 0 Calma 7 Nordeste 0 -- -- 86
2021-02-18 00:00:00 9.3 5 Norte 6 Norte 0 -- -- 85
2021-02-17 23:00:00 9.7 3 Sudoeste 5 Sur 0 -- -- 82
2021-02-17 22:00:00 10.2 0 Calma 5 Sudoeste 0 -- -- 80
2021-02-17 21:00:00 10.4 5 Sudoeste 7 Sudoeste 0 -- -- 79
2021-02-17 20:00:00 11.2 5 Sudoeste 8 Sudoeste 0 -- -- 79
2021-02-17 19:00:00 13.1 5 Sudeste 12 Sudeste 0 -- -- 72
2021-02-17 18:00:00 14.5 6 Sudeste 10 Este 0 -- -- 65
2021-02-17 17:00:00 14.9 5 Sudeste 12 Nordeste 0 -- -- 63
2021-02-17 16:00:00 15.1 6 Este 13 Este 0 -- -- 62
2021-02-17 15:00:00 14.8 6 Sudeste 15 Este 0 -- -- 66
2021-02-17 14:00:00 14.1 9 Sudeste 13 Este 0 -- -- 68
2021-02-17 13:00:00 12.3 6 Sudeste 12 Sudeste 0 -- -- 77
2021-02-17 12:00:00 11.1 6 Sudeste 11 Sudeste 0 -- -- 79
2021-02-17 11:00:00 9.5 4 Sudeste 8 Sur 0 -- -- 86
2021-02-17 10:00:00 7.8 3 Sur 5 Sudeste 0 -- -- 93
2021-02-17 09:00:00 6.6 3 Sudoeste 4 Sudoeste 0 -- -- 94
2021-02-17 08:00:00 5.9 0 Calma 5 Nordeste 0 -- -- 93
2021-02-17 07:00:00 6.3 2 Sur 10 Nordeste 0 -- -- 91
2021-02-17 06:00:00 6.9 2 Oeste 10 Nordeste 0 -- -- 89
2021-02-17 05:00:00 7.4 3 Sur 7 Sudeste 0 -- -- 87
2021-02-17 04:00:00 8.5 0 Calma 5 Oeste 0 -- -- 87
2021-02-17 03:00:00 8.9 0 Calma 7 Sudoeste 0 -- -- 89
2021-02-17 02:00:00 7.7 3 Sudoeste 15 Nordeste 0 -- -- 89
2021-02-17 01:00:00 8.8 2 Sudoeste 13 Noroeste 0 -- -- 87
2021-02-17 00:00:00 8.8 12 Norte 15 Norte 0 -- -- 85
2021-02-16 23:00:00 10.1 6 Noroeste 18 Noroeste 0 -- -- 82
2021-02-16 22:00:00 10.5 9 Noroeste 13 Oeste 0 -- -- 81
2021-02-16 21:00:00 10.1 4 Oeste 8 Sudoeste 0 -- -- 81
2021-02-16 20:00:00 10.8 4 Sudoeste 8 Sudoeste 0 -- -- 79
2021-02-16 19:00:00 11.9 3 Sur 9 Sudeste 0 -- -- 73
2021-02-16 18:00:00 12.5 5 Sudeste 9 Sudeste 0 -- -- 71
2021-02-16 17:00:00 13.6 3 Este 10 Sudeste 0 -- -- 67
2021-02-16 16:00:00 13.9 5 Sudeste 13 Sudeste 0 -- -- 65
2021-02-16 15:00:00 14 4 Sudoeste 13 Este 0 -- -- 64
2021-02-16 14:00:00 12.9 7 Sudeste 17 Sur 0 -- -- 68
2021-02-16 13:00:00 12.6 7 Sur 19 Este 0 -- -- 70
2021-02-16 12:00:00 10.7 8 Sudeste 15 Sudeste 0 -- -- 75
2021-02-16 11:00:00 9.7 4 Sudeste 8 Sudeste 0 -- -- 81
2021-02-16 10:00:00 8.2 4 Sur 6 Sur 0 -- -- 88
2021-02-16 09:00:00 7.5 4 Sur 6 Sudeste 0 -- -- 91
2021-02-16 08:00:00 7.2 4 Sur 8 Sudeste 0 -- -- 92
2021-02-16 07:00:00 7.2 4 Sudeste 6 Sudeste 0 -- -- 91
2021-02-16 06:00:00 7.4 4 Sudeste 10 Sudeste 0 -- -- 91
2021-02-16 05:00:00 7.6 6 Este 10 Este 0 -- -- 91
2021-02-16 04:00:00 7.7 5 Sudeste 9 Sudeste 0 -- -- 90
2021-02-16 03:00:00 7.9 5 Sudeste 11 Sudeste 0 -- -- 90
2021-02-16 02:00:00 7.9 7 Sudeste 16 Este 0 -- -- 90
2021-02-16 01:00:00 7.9 5 Este 12 Sudeste 0 -- -- 90
2021-02-16 00:00:00 7.8 8 Sudeste 14 Sudeste 0 -- -- 90
2021-02-15 23:00:00 7.5 5 Este 15 Sudeste 0 -- -- 90
2021-02-15 22:00:00 7.3 6 Sudeste 14 Sudeste 0 -- -- 91
2021-02-15 21:00:00 7.6 9 Sudeste 18 Sudeste 0 -- -- 89
2021-02-15 20:00:00 8.7 10 Sudeste 21 Sudeste 0 -- -- 85
2021-02-15 19:00:00 9.4 11 Sudeste 23 Este 0 -- -- 82
2021-02-15 18:00:00 10 11 Este 22 Este 0 -- -- 78
2021-02-15 17:00:00 10.3 11 Este 21 Sudeste 0 -- -- 76
2021-02-15 16:00:00 9.6 10 Este 21 Sudeste 0 -- -- 78
2021-02-15 15:00:00 8.3 13 Sudeste 22 Sudeste 0 -- -- 82
2021-02-15 14:00:00 7.8 10 Sudeste 18 Este 0 -- -- 84
2021-02-15 13:00:00 7.4 9 Sudeste 18 Sur 0 -- -- 85
2021-02-15 12:00:00 7.1 8 Sudeste 16 Sur 0 -- -- 87
2021-02-15 11:00:00 6.5 9 Sudeste 21 Sudeste 0 -- -- 88
2021-02-15 10:00:00 6 8 Sudeste 17 Sudeste 0 -- -- 89
2021-02-15 09:00:00 5.7 6 Sudeste 11 Sudeste 0 -- -- 89
2021-02-15 08:00:00 5.5 5 Sudeste 10 Sudeste 0 -- -- 90
2021-02-15 07:00:00 5.4 3 Sudeste 9 Sudeste 0 -- -- 90
2021-02-15 06:00:00 5.4 5 Sudeste 10 Sudeste 0 -- -- 90
2021-02-15 05:00:00 5.3 6 Sudeste 12 Sudeste 0 -- -- 90
2021-02-15 04:00:00 5.3 6 Sudeste 14 Sudeste 0 -- -- 90
2021-02-15 03:00:00 5.4 7 Sudeste 18 Sudeste 0 -- -- 90
2021-02-15 02:00:00 5.4 8 Este 19 Sudeste 0 -- -- 90
2021-02-15 01:00:00 5.5 13 Sudeste 23 Sudeste 0 -- -- 90
2021-02-15 00:00:00 5.5 10 Este 23 Sudeste 0 -- -- 91
2021-02-14 23:00:00 5.9 15 Sudeste 27 Sudeste 0 -- -- 88
2021-02-14 22:00:00 6.3 14 Sudeste 23 Sudeste 0 -- -- 87
2021-02-14 21:00:00 6.7 13 Sudeste 27 Sudeste 0 -- -- 89
2021-02-14 20:00:00 7 11 Sudeste 30 Sudeste 0 -- -- 91
2021-02-14 19:00:00 7.7 16 Sudeste 35 Sudeste 0 -- -- 89
2021-02-14 18:00:00 8.6 20 Sudeste 31 Sudeste 0 -- -- 87
2021-02-14 17:00:00 9 19 Sudeste 31 Sudeste 0 -- -- 85
2021-02-14 16:00:00 9.7 16 Sudeste 30 Este 0 -- -- 83
2021-02-14 15:00:00 9.9 16 Este 31 Sudeste 0 -- -- 83
2021-02-14 14:00:00 9.9 16 Sudeste 25 Sudeste 0 -- -- 81
2021-02-14 13:00:00 9.5 8 Este 19 Este 0 -- -- 86
2021-02-14 12:00:00 8.6 10 Sudeste 20 Sudeste 0 -- -- 84
2021-02-14 11:00:00 8.9 9 Sudeste 16 Sudeste 0 -- -- 82
2021-02-14 10:00:00 6.7 6 Sudeste 9 Sudeste 0 -- -- 95
2021-02-14 09:00:00 4.7 5 Sudoeste 9 Sudoeste 0 -- -- 94
2021-02-14 08:00:00 4.4 3 Sur 8 Sudoeste 0 -- -- 94
2021-02-14 07:00:00 4.5 2 Sudoeste 6 Oeste 0 -- -- 94
2021-02-14 06:00:00 4.3 0 Calma 14 Noroeste 0 -- -- 92
2021-02-14 05:00:00 4.5 13 Noroeste 15 Noroeste 0 -- -- 91
2021-02-14 04:00:00 4.7 4 Norte 12 Noroeste 0 -- -- 89
2021-02-14 03:00:00 4.9 8 Noroeste 13 Noroeste 0 -- -- 85
2021-02-14 02:00:00 4.9 11 Noroeste 18 Noroeste 0 -- -- 84
2021-02-14 01:00:00 5.4 11 Norte 13 Norte 0 -- -- 84
2021-02-14 00:00:00 6.2 11 Noroeste 24 Noroeste 0 -- -- 78
2021-02-13 23:00:00 7.8 18 Noroeste 30 Noroeste 0 -- -- 73
2021-02-13 22:00:00 8.5 21 Noroeste 36 Noroeste 0 -- -- 73
2021-02-13 21:00:00 8.7 21 Noroeste 31 Noroeste 0 -- -- 75
2021-02-13 20:00:00 9.7 20 Noroeste 40 Noroeste 0 -- -- 70
2021-02-13 19:00:00 11.4 29 Noroeste 46 Noroeste 0 -- -- 65
2021-02-13 18:00:00 11.8 30 Noroeste 42 Noroeste 0 -- -- 64
2021-02-13 17:00:00 11.8 32 Noroeste 46 Noroeste 0 -- -- 63
2021-02-13 16:00:00 12.3 32 Noroeste 55 Noroeste 0 -- -- 60
2021-02-13 15:00:00 14.3 43 Noroeste 59 Oeste 0 -- -- 51
2021-02-13 14:00:00 14 39 Noroeste 50 Oeste 0 -- -- 55
2021-02-13 13:00:00 13.9 32 Oeste 47 Oeste 0 -- -- 56
2021-02-13 08:00:00 -- -- -- -- -- -- -- -- --
2021-02-13 07:00:00 7.6 19 Oeste 30 Noroeste 0 -- -- 80
2021-02-13 06:00:00 8.3 25 Noroeste 41 Noroeste 0 -- -- 78
2021-02-13 05:00:00 8.6 27 Noroeste 44 Noroeste 0 -- -- 78
2021-02-13 04:00:00 9 28 Noroeste 55 Noroeste 0 -- -- 77
2021-02-13 03:00:00 9 33 Noroeste 53 Noroeste 0 -- -- 78
2021-02-13 02:00:00 9.5 37 Noroeste 56 Noroeste 0 -- -- 77
2021-02-13 01:00:00 9.7 37 Noroeste 63 Noroeste 0 -- -- 76
2021-02-13 00:00:00 9.8 35 Noroeste 61 Noroeste 0 -- -- 76
2021-02-12 23:00:00 10.2 38 Noroeste 62 Noroeste 0 -- -- 74
2021-02-12 22:00:00 10.4 37 Noroeste 68 Noroeste 0 -- -- 75
2021-02-12 21:00:00 10.6 48 Noroeste 72 Noroeste 0 -- -- 74
2021-02-12 20:00:00 11.1 51 Noroeste 71 Noroeste 0 -- -- 72
2021-02-12 19:00:00 11.3 50 Noroeste 72 Noroeste 0 -- -- 74
2021-02-12 18:00:00 11.8 42 Noroeste 62 Noroeste 0 -- -- 73
2021-02-12 17:00:00 12.5 40 Noroeste 56 Noroeste 0 -- -- 72
2021-02-12 16:00:00 11.6 38 Noroeste 54 Noroeste 0 -- -- 77
2021-02-12 15:00:00 12 38 Noroeste 51 Noroeste 0.2 -- -- 75
2021-02-12 14:00:00 11.7 30 Noroeste 49 Noroeste 0 -- -- 78
2021-02-12 13:00:00 11 12 Noroeste 30 Oeste 0.8 -- -- 87
2021-02-12 12:00:00 10.9 7 Noroeste 14 Noroeste 0.2 -- -- 89
2021-02-12 11:00:00 10.1 3 Norte 7 Este 0 -- -- 87
2021-02-12 10:00:00 8.8 5 Sudeste 13 Noroeste 0.2 -- -- 87
2021-02-12 09:00:00 7.9 5 Sudoeste 8 Sur 0 -- -- 88
2021-02-12 08:00:00 7.4 5 Sudoeste 9 Norte 0 -- -- 89
2021-02-12 07:00:00 7.9 4 Sur 6 Sur 0 -- -- 87
2021-02-12 06:00:00 7.9 3 Sur 10 Sur 0 -- -- 87
2021-02-12 05:00:00 8.9 5 Sur 9 Sudoeste 0 -- -- 84
2021-02-12 04:00:00 8.1 5 Sudoeste 9 Este 0 -- -- 87
2021-02-12 03:00:00 8.6 8 Este 14 Este 0 -- -- 85
2021-02-12 02:00:00 9.1 3 Este 12 Norte 0 -- -- 82
2021-02-12 01:00:00 10.7 8 Sur 16 Sudoeste 0 -- -- 76
2021-02-12 00:00:00 13 6 Sudoeste 13 Oeste 0 -- -- 66
2021-02-11 23:00:00 12.8 8 Oeste 14 Oeste 0 -- -- 67
2021-02-11 22:00:00 13 13 Oeste 15 Oeste 0 -- -- 65
2021-02-11 21:00:00 12.6 12 Noroeste 15 Oeste 0 -- -- 66
2021-02-11 20:00:00 13.7 10 Oeste 12 Oeste 0 -- -- 62
2021-02-11 19:00:00 13.4 8 Noroeste 9 Noroeste 0 -- -- 66
2021-02-11 18:00:00 14.8 6 Noroeste 14 Noroeste 0 -- -- 61
2021-02-11 17:00:00 16 12 Noroeste 27 Noroeste 0 -- -- 57
2021-02-11 16:00:00 16.4 20 Noroeste 30 Noroeste 0 -- -- 56
2021-02-11 15:00:00 16.5 18 Noroeste 26 Noroeste 0 -- -- 55
2021-02-11 14:00:00 15.8 20 Noroeste 28 Oeste 0 -- -- 56
2021-02-11 13:00:00 14.9 14 Noroeste 23 Oeste 0 -- -- 55
2021-02-11 12:00:00 13 4 Sur 12 Nordeste 0 -- -- 64
2021-02-11 11:00:00 10.1 8 Nordeste 15 Norte 0 -- -- 72
2021-02-11 10:00:00 8.2 6 Norte 13 Noroeste 0 -- -- 76
2021-02-11 09:00:00 6.3 7 Noroeste 9 Noroeste 0 -- -- 75
2021-02-11 08:00:00 4.1 2 Oeste 11 Oeste 0 -- -- 82
2021-02-11 07:00:00 5.6 4 Noroeste 12 Noroeste 0 -- -- 75
2021-02-11 06:00:00 4.6 10 Noroeste 17 Oeste 0 -- -- 77
2021-02-11 05:00:00 7.9 15 Oeste 21 Oeste 0 -- -- 65
2021-02-11 04:00:00 7.7 13 Oeste 18 Oeste 0 -- -- 67
2021-02-11 03:00:00 8 12 Oeste 21 Oeste 0 -- -- 67
2021-02-11 02:00:00 7.3 14 Oeste 22 Oeste 0 -- -- 69
2021-02-11 01:00:00 8.1 13 Oeste 23 Oeste 0 -- -- 66
2021-02-11 00:00:00 7.6 15 Oeste 26 Oeste 0 -- -- 68
2021-02-10 23:00:00 7.4 18 Oeste 28 Noroeste 0 -- -- 69
2021-02-10 22:00:00 7.8 14 Oeste 22 Oeste 0 -- -- 66
2021-02-10 21:00:00 7.5 15 Oeste 24 Noroeste 0 -- -- 68
2021-02-10 20:00:00 8.1 12 Oeste 24 Noroeste 0 -- -- 70
2021-02-10 19:00:00 8.9 13 Noroeste 40 Noroeste 0 -- -- 66
2021-02-10 18:00:00 10.9 23 Noroeste 49 Noroeste 0 -- -- 59
2021-02-10 17:00:00 11.9 34 Noroeste 51 Noroeste 0 -- -- 55
2021-02-10 16:00:00 12 40 Noroeste 62 Noroeste 0 -- -- 54
2021-02-10 15:00:00 11.6 42 Noroeste 59 Noroeste 0 -- -- 55
2021-02-10 14:00:00 11.1 32 Noroeste 57 Noroeste 0 -- -- 62
2021-02-10 13:00:00 10.1 37 Noroeste 61 Noroeste 0 -- -- 68
2021-02-10 12:00:00 8.6 41 Noroeste 63 Noroeste 0.2 -- -- 79
2021-02-10 11:00:00 6.2 17 Noroeste 35 Noroeste 0 -- -- 94
2021-02-10 10:00:00 5.4 11 Norte 15 Norte 0.2 -- -- 95
2021-02-10 09:00:00 4.7 8 Noroeste 10 Noroeste 0.4 -- -- 94
2021-02-10 08:00:00 4.9 5 Sudeste 11 Este 0.2 -- -- 94
2021-02-10 07:00:00 4.8 0 Calma 9 Oeste 1.4 -- -- 93
2021-02-10 06:00:00 5.1 3 Sur 12 Sudeste 0 -- -- 92
2021-02-10 05:00:00 5.2 6 Sudeste 15 Sudeste 0 -- -- 92
2021-02-10 04:00:00 5.1 5 Sudeste 11 Este 0.4 -- -- 92
2021-02-10 03:00:00 6.1 3 Noroeste 10 Sudoeste 0.6 -- -- 85
2021-02-10 02:00:00 6.1 6 Sudoeste 11 Sudoeste 0.2 -- -- 84
2021-02-10 01:00:00 6.5 5 Sudoeste 10 Oeste 0 -- -- 81
2021-02-10 00:00:00 6.2 7 Sudoeste 14 Sudoeste 0 -- -- 84
2021-02-09 23:00:00 7.2 5 Norte 13 Oeste 0 -- -- 77
2021-02-09 22:00:00 5.4 9 Noroeste 14 Oeste 0 -- -- 88
2021-02-09 21:00:00 6.1 10 Oeste 21 Oeste 0 -- -- 84
2021-02-09 20:00:00 6.1 4 Sur 11 Sudeste 0 -- -- 94
2021-02-09 19:00:00 6.9 6 Sudeste 22 Sur 0 -- -- 94
2021-02-09 18:00:00 7 10 Sur 16 Sudeste 1 -- -- 93
2021-02-09 17:00:00 7.1 8 Sur 22 Sur 1 -- -- 93
2021-02-09 16:00:00 7.1 7 Sudeste 14 Sudeste 0.8 -- -- 92
2021-02-09 15:00:00 6.9 9 Sudeste 17 Sudeste 0.2 -- -- 91
2021-02-09 14:00:00 6.1 8 Sudeste 21 Sudeste 0 -- -- 92
2021-02-09 13:00:00 5.8 8 Sudeste 18 Sudeste 0 -- -- 92
2021-02-09 12:00:00 5.5 10 Sudeste 20 Sudeste 0 -- -- 90
2021-02-09 11:00:00 5.9 10 Sudeste 16 Sudeste 0 -- -- 86
2021-02-09 10:00:00 7.1 8 Sudeste 14 Sudeste 0 -- -- 79
2021-02-09 09:00:00 7.3 4 Nordeste 8 Norte 0 -- -- 78
2021-02-09 08:00:00 8.5 6 Sudoeste 18 Oeste 0 -- -- 74
2021-02-09 07:00:00 7.3 13 Oeste 19 Noroeste 0 -- -- 79
2021-02-09 06:00:00 6.7 10 Norte 21 Norte 0 -- -- 78
2021-02-09 05:00:00 6.3 14 Oeste 19 Noroeste 0 -- -- 79
2021-02-09 04:00:00 7 13 Oeste 22 Oeste 0 -- -- 75
2021-02-09 03:00:00 7.7 14 Oeste 24 Oeste 0 -- -- 74
2021-02-09 02:00:00 8.4 14 Oeste 30 Oeste 0 -- -- 74
2021-02-09 01:00:00 8.5 15 Oeste 32 Oeste 0 -- -- 74
2021-02-09 00:00:00 8.5 20 Oeste 34 Oeste 0 -- -- 73
2021-02-08 23:00:00 7.5 17 Oeste 32 Oeste 0 -- -- 78
2021-02-08 22:00:00 8 17 Oeste 30 Oeste 0 -- -- 77
2021-02-08 21:00:00 7.8 19 Oeste 29 Oeste 0 -- -- 78
2021-02-08 20:00:00 7.2 15 Oeste 22 Oeste 0.2 -- -- 85
2021-02-08 19:00:00 6.9 12 Noroeste 52 Noroeste 1.8 -- -- 89
2021-02-08 18:00:00 10.8 17 Noroeste 36 Noroeste 0 -- -- 67
2021-02-08 17:00:00 11.6 18 Noroeste 28 Noroeste 0 -- -- 65
2021-02-08 16:00:00 10.4 5 Sur 9 Sur 0 -- -- 78
2021-02-08 15:00:00 10.2 3 Este 20 Nordeste 0 -- -- 77
2021-02-08 14:00:00 9.8 14 Nordeste 22 Noroeste 0 -- -- 80
2021-02-08 13:00:00 9.1 6 Noroeste 13 Nordeste 0.2 -- -- 79
2021-02-08 12:00:00 5.4 4 Este 8 Este 0.6 -- -- 87
2021-02-08 11:00:00 5.4 5 Sudeste 13 Sudeste 0 -- -- 81
2021-02-08 10:00:00 5.3 6 Sudeste 12 Sudeste 0 -- -- 79
2021-02-08 09:00:00 5.2 5 Sur 12 Sudeste 0 -- -- 79
2021-02-08 08:00:00 5.2 5 Sur 10 Sudeste 0 -- -- 79
2021-02-08 07:00:00 5.4 4 Este 9 Este 0 -- -- 77
2021-02-08 06:00:00 5.6 0 Calma 4 Sudeste 0 -- -- 77
2021-02-08 05:00:00 6 3 Norte 9 Noroeste 0 -- -- 72
2021-02-08 04:00:00 5.8 4 Noroeste 14 Norte 0 -- -- 72
2021-02-08 03:00:00 5.5 7 Norte 9 Norte 0 -- -- 73
2021-02-08 02:00:00 5.4 6 Noroeste 14 Noroeste 0 -- -- 73
2021-02-08 01:00:00 5.5 13 Noroeste 14 Noroeste 0 -- -- 71
2021-02-08 00:00:00 5.9 12 Noroeste 13 Noroeste 0 -- -- 69
2021-02-07 23:00:00 6.6 11 Oeste 15 Oeste 0 -- -- 68
2021-02-07 22:00:00 6.8 11 Oeste 19 Noroeste 0 -- -- 69
2021-02-07 21:00:00 7.3 14 Oeste 23 Oeste 0 -- -- 65
2021-02-07 20:00:00 7.5 16 Noroeste 22 Noroeste 0 -- -- 66
2021-02-07 19:00:00 7.7 15 Oeste 22 Oeste 0 -- -- 66
2021-02-07 18:00:00 9 16 Oeste 43 Noroeste 0 -- -- 59
2021-02-07 17:00:00 9.6 31 Noroeste 56 Noroeste 0 -- -- 59
2021-02-07 16:00:00 8.8 43 Noroeste 56 Noroeste 0 -- -- 59
2021-02-07 15:00:00 10 38 Noroeste 57 Noroeste 0 -- -- 55
2021-02-07 14:00:00 9.6 39 Noroeste 60 Noroeste 0 -- -- 58
2021-02-07 13:00:00 9.1 42 Noroeste 58 Noroeste 0 -- -- 60
2021-02-07 12:00:00 8.3 39 Noroeste 56 Noroeste 0 -- -- 62
2021-02-07 11:00:00 7.4 39 Noroeste 53 Noroeste 0 -- -- 66
2021-02-07 10:00:00 5.6 39 Noroeste 53 Oeste 0 -- -- 73
2021-02-07 09:00:00 4.4 34 Noroeste 45 Noroeste 0 -- -- 76
2021-02-07 08:00:00 3.6 27 Noroeste 58 Noroeste 0 -- -- 78
2021-02-07 07:00:00 4 34 Noroeste 53 Noroeste 0 -- -- 76
2021-02-07 06:00:00 4.4 38 Noroeste 52 Noroeste 0 -- -- 74
2021-02-07 05:00:00 5.2 37 Noroeste 53 Noroeste 0 -- -- 70
2021-02-07 04:00:00 5.8 38 Noroeste 51 Noroeste 0 -- -- 69
2021-02-07 03:00:00 6 32 Noroeste 49 Noroeste 0 -- -- 72
2021-02-07 02:00:00 6.3 37 Noroeste 60 Noroeste 0 -- -- 73
2021-02-07 01:00:00 6.7 39 Noroeste 54 Noroeste 0 -- -- 72
2021-02-07 00:00:00 7 35 Noroeste 48 Noroeste 0 -- -- 73
2021-02-06 23:00:00 7.2 34 Noroeste 51 Noroeste 0 -- -- 75
2021-02-06 22:00:00 7 30 Noroeste 44 Noroeste 0 -- -- 80
2021-02-06 21:00:00 7.6 31 Noroeste 42 Noroeste 0 -- -- 82
2021-02-06 20:00:00 7.7 28 Noroeste 43 Noroeste 0 -- -- 85
2021-02-06 19:00:00 8.3 30 Noroeste 46 Noroeste 0 -- -- 84
2021-02-06 18:00:00 9.3 24 Noroeste 41 Noroeste 0.2 -- -- 84
2021-02-06 17:00:00 10.5 26 Noroeste 52 Noroeste 0 -- -- 80
2021-02-06 16:00:00 14.8 13 Noroeste 23 Noroeste 0 -- -- 54
2021-02-06 15:00:00 15.1 19 Noroeste 33 Noroeste 0 -- -- 52
2021-02-06 14:00:00 15.7 17 Oeste 27 Oeste 0 -- -- 51
2021-02-06 13:00:00 15 16 Oeste 24 Oeste 0 -- -- 53
2021-02-06 12:00:00 13.2 4 Sudeste 9 Sudeste 0 -- -- 68
2021-02-06 11:00:00 12 3 Norte 8 Noroeste 0 -- -- 73
2021-02-06 10:00:00 10.5 5 Noroeste 13 Noroeste 0 -- -- 81
2021-02-06 09:00:00 9 9 Noroeste 16 Norte 0 -- -- 88
2021-02-06 08:00:00 9.1 7 Norte 21 Nordeste 0 -- -- 85
2021-02-06 07:00:00 10.2 9 Norte 30 Oeste 0 -- -- 77
2021-02-06 06:00:00 11.6 10 Oeste 21 Sudoeste 0 -- -- 67
2021-02-06 05:00:00 10.6 6 Sudoeste 15 Oeste 0 -- -- 69
2021-02-06 04:00:00 9.3 7 Noroeste 15 Sudoeste 0 -- -- 83
2021-02-06 03:00:00 9.4 11 Noroeste 12 Noroeste 0 -- -- 83
2021-02-06 02:00:00 9.2 8 Oeste 17 Noroeste 0 -- -- 86
2021-02-06 01:00:00 9 8 Norte 12 Noroeste 0 -- -- 85
2021-02-06 00:00:00 9.9 6 Este 14 Sudeste 0 -- -- 79
2021-02-05 23:00:00 9.9 6 Sudeste 18 Sur 0 -- -- 79
2021-02-05 22:00:00 10.2 4 Este 16 Sudeste 0 -- -- 79
2021-02-05 21:00:00 10.9 12 Sur 19 Sur 0 -- -- 76
2021-02-05 20:00:00 11.3 8 Sudeste 23 Sudeste 0 -- -- 73
2021-02-05 19:00:00 12.1 10 Sudeste 26 Sur 0 -- -- 70
2021-02-05 18:00:00 12.7 18 Sur 31 Sudeste 0 -- -- 71
2021-02-05 17:00:00 13.7 17 Sur 33 Sur 0 -- -- 67
2021-02-05 16:00:00 14.6 18 Sur 35 Este 0 -- -- 62
2021-02-05 15:00:00 14.8 20 Sudeste 36 Sudeste 0 -- -- 61
2021-02-05 14:00:00 14.5 18 Sudeste 35 Sur 0 -- -- 65
2021-02-05 13:00:00 13.5 17 Sudeste 28 Sudeste 0 -- -- 70
2021-02-05 12:00:00 10.8 15 Sudeste 26 Sudeste 0 -- -- 85
2021-02-05 11:00:00 8.1 7 Sudeste 18 Sudeste 0 -- -- 94
2021-02-05 10:00:00 7.6 12 Sudeste 17 Sur 0 -- -- 93
2021-02-05 09:00:00 7.4 6 Sudeste 11 Sudeste 0 -- -- 91
2021-02-05 08:00:00 8.3 8 Sudeste 12 Sudeste 0 -- -- 87
2021-02-05 07:00:00 9.5 6 Sudeste 10 Sur 0 -- -- 79
2021-02-05 06:00:00 8.9 7 Sudoeste 11 Sudoeste 0 -- -- 83
2021-02-05 05:00:00 8.8 4 Sudoeste 7 Sudoeste 0 -- -- 86
2021-02-05 04:00:00 9.1 0 Calma 6 Sudeste 0 -- -- 87
2021-02-05 03:00:00 9.3 3 Este 5 Este 0 -- -- 85
2021-02-05 02:00:00 9.6 4 Sur 8 Sudeste 0 -- -- 84
2021-02-05 01:00:00 9.6 0 Calma 8 Oeste 0 -- -- 86
2021-02-05 00:00:00 9.9 5 Sur 15 Sudeste 0 -- -- 83
2021-02-04 23:00:00 10.3 6 Sudeste 12 Sudeste 0 -- -- 82
2021-02-04 22:00:00 10.8 5 Este 11 Sudeste 0 -- -- 78
2021-02-04 21:00:00 11 5 Este 10 Sudeste 0 -- -- 77
2021-02-04 20:00:00 11.9 4 Sur 14 Sudeste 0 -- -- 71
2021-02-04 19:00:00 13.2 10 Sudeste 21 Sur 0 -- -- 66
2021-02-04 18:00:00 14.7 15 Sudeste 30 Sudeste 0 -- -- 62
2021-02-04 17:00:00 15.7 11 Sudeste 22 Este 0 -- -- 62
2021-02-04 16:00:00 15.6 10 Sudeste 27 Este 0 -- -- 62
2021-02-04 15:00:00 15.8 15 Este 26 Este 0 -- -- 59
2021-02-04 14:00:00 14.9 14 Sudeste 25 Sudeste 0 -- -- 63
2021-02-04 13:00:00 13.5 13 Sudeste 20 Sudeste 0 -- -- 66
2021-02-04 12:00:00 11.5 3 Este 13 Este 0 -- -- 76
2021-02-04 11:00:00 11.2 5 Este 9 Este 0 -- -- 75
2021-02-04 10:00:00 9.6 4 Sudoeste 7 Sudoeste 0 -- -- 82
2021-02-04 09:00:00 9 4 Sudoeste 6 Sudoeste 0 -- -- 83
2021-02-04 08:00:00 8.7 6 Sudoeste 10 Sudoeste 0 -- -- 84
2021-02-04 07:00:00 8.8 4 Sudoeste 6 Sudoeste 0 -- -- 84
2021-02-04 06:00:00 8.8 5 Sudoeste 6 Sudoeste 0 -- -- 84
2021-02-04 05:00:00 8.9 3 Este 6 Sur 0 -- -- 84
2021-02-04 04:00:00 9 4 Sudoeste 7 Sur 0 -- -- 83
2021-02-04 03:00:00 9.4 6 Sur 9 Sudeste 0 -- -- 79
2021-02-04 02:00:00 10 4 Sur 9 Sur 0 -- -- 78
2021-02-04 01:00:00 9.9 3 Sur 9 Sur 0 -- -- 79
2021-02-04 00:00:00 10.7 2 Sudeste 8 Sudoeste 0 -- -- 73
2021-02-03 23:00:00 12 4 Sudeste 8 Sudoeste 0 -- -- 68
2021-02-03 22:00:00 12.3 0 Calma 12 Nordeste 0 -- -- 66
2021-02-03 21:00:00 11.8 10 Sudoeste 14 Sudoeste 0 -- -- 69
2021-02-03 20:00:00 12 4 Sur 8 Sudeste 0 -- -- 68
2021-02-03 19:00:00 13.1 4 Sudoeste 12 Noroeste 0 -- -- 65
2021-02-03 18:00:00 15.3 9 Oeste 17 Oeste 0 -- -- 57
2021-02-03 17:00:00 16.9 14 Oeste 26 Oeste 0 -- -- 52
2021-02-03 16:00:00 18.1 14 Noroeste 28 Noroeste 0 -- -- 49
2021-02-03 15:00:00 18.1 19 Oeste 31 Oeste 0 -- -- 48
2021-02-03 14:00:00 18.3 13 Oeste 24 Oeste 0 -- -- 48
2021-02-03 13:00:00 15.2 7 Norte 15 Noroeste 0 -- -- 58
2021-02-03 12:00:00 14 6 Nordeste 12 Nordeste 0 -- -- 63
2021-02-03 11:00:00 12.7 5 Nordeste 10 Nordeste 0 -- -- 69
2021-02-03 10:00:00 10.8 3 Este 8 Sudoeste 0 -- -- 74
2021-02-03 09:00:00 7.2 4 Sudoeste 8 Sudoeste 0 -- -- 82
2021-02-03 08:00:00 6.9 3 Sudoeste 7 Sudoeste 0 -- -- 83
2021-02-03 07:00:00 6.7 5 Sudoeste 8 Sudoeste 0 -- -- 84
2021-02-03 06:00:00 7.5 4 Sudeste 10 Este 0 -- -- 80
2021-02-03 05:00:00 8 2 Sudeste 8 Este 0 -- -- 78
2021-02-03 04:00:00 7.6 4 Sudoeste 7 Sudoeste 0 -- -- 79
2021-02-03 03:00:00 8.7 5 Sudoeste 9 Sudoeste 0 -- -- 76
2021-02-03 02:00:00 10 2 Sudoeste 12 Noroeste 0 -- -- 72
2021-02-03 01:00:00 8.9 6 Norte 16 Oeste 0 -- -- 76
2021-02-03 00:00:00 12.1 13 Oeste 18 Oeste 0 -- -- 66
2021-02-02 23:00:00 11.7 15 Sudoeste 18 Sudoeste 0 -- -- 67
2021-02-02 22:00:00 12 15 Oeste 26 Noroeste 0 -- -- 67
2021-02-02 21:00:00 12.3 17 Oeste 25 Noroeste 0 -- -- 65
2021-02-02 20:00:00 13.7 14 Oeste 21 Oeste 0 -- -- 60
2021-02-02 19:00:00 14.9 13 Oeste 18 Oeste 0 -- -- 57
2021-02-02 18:00:00 17.2 11 Oeste 22 Oeste 0 -- -- 52
2021-02-02 17:00:00 17.7 12 Oeste 28 Oeste 0 -- -- 51
2021-02-02 16:00:00 18.6 14 Oeste 25 Noroeste 0 -- -- 46
2021-02-02 15:00:00 18.8 10 Oeste 26 Noroeste 0 -- -- 48
2021-02-02 14:00:00 17 15 Noroeste 31 Oeste 0 -- -- 55
2021-02-02 13:00:00 16.4 21 Noroeste 30 Oeste 0 -- -- 58
2021-02-02 12:00:00 16.9 18 Oeste 25 Oeste 0 -- -- 55
2021-02-02 11:00:00 16.5 12 Oeste 21 Oeste 0 -- -- 56
2021-02-02 10:00:00 13.7 14 Oeste 20 Oeste 0 -- -- 67
2021-02-02 09:00:00 10 13 Oeste 18 Oeste 0 -- -- 78
2021-02-02 08:00:00 11 12 Oeste 23 Oeste 0 -- -- 73
2021-02-02 07:00:00 11.1 17 Oeste 28 Oeste 0 -- -- 73
2021-02-02 06:00:00 11 19 Oeste 29 Oeste 0 -- -- 74
2021-02-02 05:00:00 10.5 22 Oeste 28 Oeste 0 -- -- 76
2021-02-02 04:00:00 10.5 21 Noroeste 34 Oeste 0 -- -- 76
2021-02-02 03:00:00 11.4 19 Oeste 27 Oeste 0 -- -- 72
2021-02-02 02:00:00 11.3 14 Oeste 24 Noroeste 0 -- -- 73
2021-02-02 01:00:00 11.7 17 Oeste 25 Oeste 0 -- -- 73
2021-02-02 00:00:00 11.2 17 Oeste 29 Oeste 0 -- -- 74
2021-02-01 23:00:00 11.6 17 Oeste 26 Oeste 0 -- -- 73
2021-02-01 22:00:00 12.2 17 Oeste 26 Oeste 0 -- -- 70
2021-02-01 21:00:00 12.4 14 Oeste 24 Oeste 0 -- -- 70
2021-02-01 20:00:00 12.1 14 Oeste 44 Noroeste 0 -- -- 70
2021-02-01 19:00:00 12.8 30 Noroeste 44 Noroeste 0 -- -- 67
2021-02-01 18:00:00 13.7 23 Noroeste 43 Noroeste 0 -- -- 62
2021-02-01 17:00:00 14.5 32 Noroeste 60 Noroeste 0 -- -- 57
2021-02-01 16:00:00 15.7 40 Noroeste 70 Noroeste 0 -- -- 50
2021-02-01 15:00:00 15.9 53 Noroeste 79 Noroeste 0 -- -- 45
2021-02-01 14:00:00 15.8 53 Noroeste 82 Noroeste 0 -- -- 45
2021-02-01 13:00:00 14.9 57 Noroeste 83 Noroeste 0 -- -- 48
2021-02-01 12:00:00 14 54 Noroeste 73 Noroeste 0 -- -- 51
2021-02-01 11:00:00 12.6 42 Noroeste 58 Noroeste 0 -- -- 59
2021-02-01 10:00:00 11.2 39 Noroeste 53 Noroeste 0 -- -- 63
2021-02-01 09:00:00 9.4 30 Noroeste 40 Noroeste 0 -- -- 69
2021-02-01 08:00:00 9.4 29 Noroeste 43 Noroeste 0 -- -- 68
2021-02-01 07:00:00 9.4 25 Oeste 57 Noroeste 0 -- -- 68
2021-02-01 06:00:00 11 42 Noroeste 64 Noroeste 0 -- -- 62
2021-02-01 05:00:00 11.2 39 Noroeste 61 Noroeste 0 -- -- 63
2021-02-01 04:00:00 11.4 32 Noroeste 64 Noroeste 0 -- -- 62
2021-02-01 03:00:00 12.4 48 Noroeste 65 Noroeste 0 -- -- 59
2021-02-01 02:00:00 12 39 Noroeste 55 Noroeste 0 -- -- 62
2021-02-01 01:00:00 12.1 28 Noroeste 44 Noroeste 0 -- -- 66
2021-02-01 00:00:00 13.8 24 Oeste 50 Oeste 0 -- -- 60
2021-01-31 23:00:00 13.2 21 Oeste 32 Oeste 0 -- -- 68
2021-01-31 22:00:00 10.1 13 Noroeste 19 Noroeste 0 -- -- 77
2021-01-31 21:00:00 11.3 15 Oeste 24 Oeste 0 -- -- 73
2021-01-31 20:00:00 10 15 Oeste 23 Oeste 0 -- -- 77
2021-01-31 19:00:00 11.3 17 Noroeste 24 Noroeste 0 -- -- 71
2021-01-31 18:00:00 11.9 15 Oeste 29 Oeste 0 -- -- 67
2021-01-31 17:00:00 12.7 17 Oeste 31 Noroeste 0 -- -- 64
2021-01-31 16:00:00 13.6 22 Noroeste 38 Noroeste 0 -- -- 60
2021-01-31 15:00:00 12.6 24 Noroeste 53 Noroeste 0 -- -- 65
2021-01-31 14:00:00 13 35 Noroeste 62 Noroeste 0 -- -- 59
2021-01-31 13:00:00 12.3 42 Noroeste 60 Noroeste 0 -- -- 57
2021-01-31 12:00:00 12 42 Noroeste 70 Noroeste 0 -- -- 57
2021-01-31 11:00:00 11.8 41 Noroeste 61 Noroeste 0 -- -- 59
2021-01-31 10:00:00 9.9 32 Noroeste 48 Noroeste 0 -- -- 65
2021-01-31 09:00:00 8.6 38 Noroeste 52 Noroeste 0 -- -- 68
2021-01-31 08:00:00 7.7 35 Noroeste 51 Noroeste 0 -- -- 71
2021-01-31 07:00:00 7 26 Noroeste 50 Noroeste 0 -- -- 73
2021-01-31 06:00:00 7.1 28 Noroeste 41 Noroeste 0 -- -- 73
2021-01-31 05:00:00 7.3 17 Oeste 42 Noroeste 0 -- -- 71
2021-01-31 04:00:00 7.5 22 Noroeste 41 Noroeste 0 -- -- 70
2021-01-31 03:00:00 8.2 34 Noroeste 48 Noroeste 0 -- -- 67
2021-01-31 02:00:00 7.5 22 Noroeste 33 Noroeste 0 -- -- 73
2021-01-31 01:00:00 8 17 Oeste 30 Oeste 0 -- -- 72
2021-01-31 00:00:00 8 15 Oeste 25 Oeste 0 -- -- 71
2021-01-30 23:00:00 7.6 14 Oeste 23 Oeste 0 -- -- 72
2021-01-30 22:00:00 7.4 14 Oeste 26 Oeste 0 -- -- 74
2021-01-30 21:00:00 7.2 13 Oeste 23 Oeste 0 -- -- 74
2021-01-30 20:00:00 7.5 17 Noroeste 28 Noroeste 0 -- -- 73
2021-01-30 19:00:00 7.1 24 Norte 52 Norte 0 -- -- 74
2021-01-30 18:00:00 8.7 35 Norte 60 Norte 0.2 -- -- 70
2021-01-30 17:00:00 11.5 24 Noroeste 34 Noroeste 0 -- -- 71
2021-01-30 16:00:00 9.4 19 Noroeste 73 Noroeste 1.6 -- -- 81
2021-01-30 15:00:00 12.1 22 Noroeste 54 Oeste 0.4 -- -- 73
2021-01-30 14:00:00 15.7 38 Oeste 58 Oeste 0 -- -- 46
2021-01-30 13:00:00 14.7 40 Noroeste 58 Oeste 0 -- -- 51
2021-01-30 12:00:00 14 31 Noroeste 48 Noroeste 0 -- -- 60
2021-01-30 11:00:00 12.6 22 Noroeste 31 Oeste 0 -- -- 71
2021-01-30 10:00:00 10 11 Noroeste 19 Noroeste 0 -- -- 86
2021-01-30 09:00:00 10 15 Oeste 39 Noroeste 0.4 -- -- 86
2021-01-30 08:00:00 11.1 18 Oeste 40 Oeste 0.2 -- -- 83
2021-01-30 07:00:00 12.7 16 Oeste 32 Oeste 0 -- -- 68
2021-01-30 06:00:00 10.4 5 Sudoeste 14 Sudoeste 0 -- -- 79
2021-01-30 05:00:00 9.2 7 Sudoeste 19 Sudoeste 0 -- -- 86
2021-01-30 04:00:00 8.9 4 Nordeste 11 Nordeste 0 -- -- 86
2021-01-30 03:00:00 10.5 4 Este 9 Sur 0 -- -- 79
2021-01-30 02:00:00 11.1 5 Sur 9 Sur 0 -- -- 77
2021-01-30 01:00:00 11.4 5 Norte 9 Sudoeste 0 -- -- 75
2021-01-30 00:00:00 11.2 2 Noroeste 19 Oeste 0 -- -- 75